Time;durP1;ratioP1;P1;durP2;ratioP2;P2;SDS_P1;SDS_P2;PMS_P1;PMS_P2;Temp;Humidity;BMP_temperature;BMP_pressure;BME280_temperature;BME280_humidity;BME280_pressure;Samples;Min_cycle;Max_cycle;Signal;HPM_P1;HPM_P2
2022/06/16 00:01:51;;;;;;;6.23;4.03;;;;;;;18.50;80.96;99574.31;5110275;28;20236;-85
2022/06/16 00:04:17;;;;;;;5.67;3.90;;;;;;;18.46;82.24;99573.78;5110094;28;20219;-85
2022/06/16 00:06:43;;;;;;;5.03;3.97;;;;;;;18.43;82.42;99568.09;5109871;28;20227;-85
2022/06/16 00:09:09;;;;;;;8.00;4.10;;;;;;;18.40;82.81;99565.81;5109872;28;20233;-85
2022/06/16 00:11:35;;;;;;;5.20;4.27;;;;;;;18.35;82.96;99570.63;5110038;28;20215;-85
2022/06/16 00:14:02;;;;;;;7.10;3.77;;;;;;;18.32;83.10;99567.41;5110137;28;20725;-85
2022/06/16 00:16:29;;;;;;;5.70;3.83;;;;;;;18.31;83.31;99576.09;5110019;28;20801;-85
2022/06/16 00:18:55;;;;;;;5.50;3.80;;;;;;;18.31;84.08;99565.75;5109916;28;20265;-85
2022/06/16 00:21:21;;;;;;;4.97;4.00;;;;;;;18.29;84.26;99567.66;5110098;28;20584;-85
2022/06/16 00:23:47;;;;;;;5.53;4.00;;;;;;;18.26;84.92;99570.53;5109704;28;20223;-86
2022/06/16 00:26:16;;;;;;;6.00;3.90;;;;;;;18.23;84.96;99568.25;5109435;28;20209;-85
2022/06/16 00:28:43;;;;;;;5.57;4.07;;;;;;;18.23;85.12;99563.06;5109596;28;20364;-85
2022/06/16 00:31:12;;;;;;;5.60;3.93;;;;;;;18.23;84.99;99567.44;5109701;28;20223;-85
2022/06/16 00:33:39;;;;;;;7.00;4.63;;;;;;;18.24;85.24;99569.91;5109447;28;20231;-85
2022/06/16 00:36:06;;;;;;;7.00;4.17;;;;;;;18.24;85.16;99564.72;5109643;28;20213;-85
2022/06/16 00:38:33;;;;;;;6.13;4.30;;;;;;;18.19;85.41;99561.75;5109167;28;20611;-85
2022/06/16 00:40:59;;;;;;;8.03;4.53;;;;;;;18.16;86.27;99556.88;5109695;28;20209;-85
2022/06/16 00:43:26;;;;;;;7.83;5.13;;;;;;;18.18;87.24;99559.31;5109412;28;20228;-85
2022/06/16 00:45:55;;;;;;;6.67;4.50;;;;;;;18.19;87.55;99561.75;5109353;28;20634;-85
2022/06/16 00:48:25;;;;;;;6.93;4.47;;;;;;;18.14;88.14;99558.78;5109477;28;20233;-85
2022/06/16 00:50:56;;;;;;;7.03;4.90;;;;;;;18.15;88.82;99560.44;5109434;28;20230;-86
2022/06/16 00:53:25;;;;;;;7.40;5.10;;;;;;;18.14;88.82;99556.22;5109435;28;20237;-85
2022/06/16 00:55:51;;;;;;;7.73;5.10;;;;;;;18.16;89.23;99563.84;5109315;28;20249;-85
2022/06/16 00:58:19;;;;;;;7.93;5.37;;;;;;;18.15;90.05;99555.25;5109031;28;20289;-86
2022/06/16 01:00:45;;;;;;;6.63;5.37;;;;;;;18.14;90.47;99563.16;5109384;28;20212;-85
2022/06/16 01:03:12;;;;;;;7.33;5.27;;;;;;;18.14;90.80;99553.63;5108861;28;20233;-85
2022/06/16 01:05:39;;;;;;;7.73;5.50;;;;;;;18.12;91.07;99554.72;5109262;28;20228;-85
2022/06/16 01:08:07;;;;;;;6.43;5.40;;;;;;;18.12;91.38;99550.34;5108763;28;20239;-85
2022/06/16 01:10:40;;;;;;;8.80;5.97;;;;;;;18.12;92.32;99550.34;5109340;28;20215;-86
2022/06/16 01:13:43;;;;;;;8.00;6.23;;;;;;;18.13;92.86;99546.81;5109130;28;20286;-85
2022/06/16 01:16:23;;;;;;;8.90;6.17;;;;;;;18.14;92.56;99548.44;5109243;28;20214;-85
2022/06/16 01:18:58;;;;;;;10.17;6.00;;;;;;;18.15;92.66;99544.91;5109111;28;20211;-86
2022/06/16 01:21:36;;;;;;;9.07;5.77;;;;;;;18.17;92.78;99537.00;5109118;28;20220;-85
2022/06/16 01:24:27;;;;;;;7.00;5.90;;;;;;;18.16;93.03;99541.34;5108944;28;20221;-85
2022/06/16 01:27:09;;;;;;;6.73;5.70;;;;;;;18.14;92.36;99543.28;5109027;28;20244;-85
2022/06/16 01:29:42;;;;;;;9.07;5.50;;;;;;;18.12;92.82;99540.00;5109023;28;20231;-84
2022/06/16 01:32:14;;;;;;;8.20;5.90;;;;;;;18.12;92.66;99544.38;5108660;28;20241;-85
2022/06/16 01:34:48;;;;;;;6.90;5.87;;;;;;;18.08;92.68;99530.94;5109186;28;20215;-85
2022/06/16 01:37:21;;;;;;;7.57;5.80;;;;;;;18.08;92.41;99538.69;5109011;28;20232;-85
2022/06/16 01:39:56;;;;;;;9.53;5.70;;;;;;;18.04;92.48;99534.78;5108949;28;20205;-85
2022/06/16 01:42:28;;;;;;;8.80;6.00;;;;;;;18.03;93.02;99535.72;5108938;28;20231;-85
2022/06/16 01:45:02;;;;;;;7.60;5.93;;;;;;;18.02;93.20;99537.50;5108714;28;20309;-85
2022/06/16 01:47:31;;;;;;;7.03;5.67;;;;;;;18.01;93.50;99537.66;5108617;28;20239;-85
2022/06/16 01:50:02;;;;;;;7.90;5.77;;;;;;;17.99;93.38;99535.22;5110631;28;20720;-85
2022/06/16 01:52:33;;;;;;;7.37;5.60;;;;;;;17.96;93.18;99542.47;5112007;28;20240;-86
2022/06/16 01:55:02;;;;;;;8.60;5.53;;;;;;;17.95;93.46;99527.88;5112478;28;20857;-86
2022/06/16 01:57:34;;;;;;;9.10;5.70;;;;;;;17.93;93.39;99535.00;5111857;28;20303;-86
2022/06/16 02:00:08;;;;;;;7.87;5.73;;;;;;;17.92;93.85;99533.34;5112236;28;20221;-86
2022/06/16 02:02:38;;;;;;;7.67;6.03;;;;;;;17.90;93.55;99530.91;5112047;28;20236;-85
2022/06/16 02:05:08;;;;;;;9.17;5.70;;;;;;;17.86;93.75;99535.59;5112039;28;20216;-85
2022/06/16 02:07:39;;;;;;;8.37;5.73;;;;;;;17.85;93.65;99533.13;5111792;28;20236;-86
2022/06/16 02:10:10;;;;;;;8.13;6.13;;;;;;;17.83;93.48;99541.06;5112328;28;20215;-86
2022/06/16 02:15:32;;;;;;;8.73;5.77;;;;;;;17.76;94.00;99532.19;5112109;28;20263;-85
2022/06/16 02:17:59;;;;;;;8.33;5.50;;;;;;;17.74;94.72;99531.53;5111591;28;20267;-85
2022/06/16 02:20:33;;;;;;;8.33;5.73;;;;;;;17.70;94.41;99537.97;5111760;28;20739;-86
2022/06/16 02:23:00;;;;;;;6.77;5.43;;;;;;;17.67;94.79;99537.44;5111515;28;20624;-85
2022/06/16 02:25:26;;;;;;;8.43;6.17;;;;;;;17.63;95.24;99536.94;5111824;28;20214;-85
2022/06/16 02:27:52;;;;;;;7.57;5.60;;;;;;;17.60;95.13;99539.81;5111566;28;20240;-85
2022/06/16 02:30:18;;;;;;;7.23;5.80;;;;;;;17.61;94.92;99536.25;5111880;28;20210;-86
2022/06/16 02:32:55;;;;;;;8.87;5.27;;;;;;;17.59;94.64;99538.16;5111471;28;20235;-86
2022/06/16 02:35:31;;;;;;;9.10;5.67;;;;;;;17.59;95.06;99538.16;5111668;28;20245;-86
2022/06/16 02:38:08;;;;;;;8.87;5.73;;;;;;;17.57;95.52;99535.72;5111316;28;20231;-85
2022/06/16 02:40:53;;;;;;;6.10;5.13;;;;;;;17.54;95.40;99536.03;5111706;28;20221;-85
2022/06/16 02:43:38;;;;;;;6.63;5.10;;;;;;;17.54;95.59;99540.34;5107305;28;20235;-85
2022/06/16 02:46:11;;;;;;;8.33;5.40;;;;;;;17.52;96.06;99539.72;5111643;28;20215;-85
2022/06/16 02:48:45;;;;;;;9.83;5.80;;;;;;;17.49;95.93;99542.59;5111215;28;20241;-85
2022/06/16 02:51:16;;;;;;;7.77;5.37;;;;;;;17.47;96.00;99544.50;5111319;28;20219;-85
2022/06/16 02:53:55;;;;;;;6.50;5.63;;;;;;;17.44;96.27;99545.59;5111078;28;20248;-85
2022/06/16 02:56:26;;;;;;;7.33;5.83;;;;;;;17.45;95.80;99546.38;5111322;28;20267;-86
2022/06/16 02:58:57;;;;;;;7.07;5.63;;;;;;;17.42;96.26;99543.16;5111103;28;20203;-86
2022/06/16 03:01:24;;;;;;;9.47;5.77;;;;;;;17.42;96.33;99538.00;5110629;28;20223;-85
2022/06/16 03:04:03;;;;;;;6.43;5.63;;;;;;;17.40;96.56;99547.66;5110940;28;20218;-86
2022/06/16 03:06:29;;;;;;;7.90;6.17;;;;;;;17.40;96.62;99554.59;5110660;28;20205;-85
2022/06/16 03:08:58;;;;;;;8.43;6.00;;;;;;;17.39;96.73;99547.78;5110865;28;20238;-85
2022/06/16 03:11:24;;;;;;;11.40;6.20;;;;;;;17.40;96.44;99549.44;5110094;28;20215;-85
2022/06/16 03:13:50;;;;;;;7.10;6.10;;;;;;;17.38;96.40;99546.97;5110951;28;20218;-85
2022/06/16 03:16:16;;;;;;;9.33;6.60;;;;;;;17.36;97.25;99554.03;5110948;28;20217;-85
2022/06/16 03:18:42;;;;;;;8.67;6.20;;;;;;;17.37;97.88;99555.69;5110731;28;20210;-84
2022/06/16 03:21:09;;;;;;;10.33;6.00;;;;;;;17.41;97.83;99556.22;5110859;28;20591;-85
2022/06/16 03:23:35;;;;;;;10.80;6.10;;;;;;;17.42;97.48;99553.50;5110409;28;20239;-86
2022/06/16 03:26:02;;;;;;;8.40;6.20;;;;;;;17.43;97.62;99552.53;5110891;28;20579;-86
2022/06/16 03:28:28;;;;;;;13.40;6.30;;;;;;;17.47;98.14;99547.06;5110416;28;20239;-85
2022/06/16 03:30:54;;;;;;;6.90;6.00;;;;;;;17.49;98.19;99550.34;5110694;28;20217;-85
2022/06/16 03:33:20;;;;;;;9.60;5.93;;;;;;;17.51;98.43;99554.41;5110818;28;20669;-85
2022/06/16 03:35:47;;;;;;;8.50;6.20;;;;;;;17.48;98.75;99551.28;5110527;28;20211;-85
2022/06/16 03:38:17;;;;;;;8.63;6.10;;;;;;;17.44;99.29;99553.34;5110243;28;20262;-86
2022/06/16 03:40:43;;;;;;;7.80;5.90;;;;;;;17.47;99.04;99552.25;5110679;28;20222;-85
2022/06/16 03:43:10;;;;;;;10.90;6.80;;;;;;;17.42;99.50;99556.09;5110239;28;20288;-86
2022/06/16 03:45:37;;;;;;;9.20;6.93;;;;;;;17.48;98.91;99552.09;5110478;28;20227;-84
2022/06/16 03:48:03;;;;;;;9.43;6.63;;;;;;;17.55;98.81;99552.34;5110116;28;20659;-85
2022/06/16 03:50:29;;;;;;;8.23;6.70;;;;;;;17.59;98.01;99558.84;5110675;28;20224;-86
2022/06/16 03:52:56;;;;;;;10.13;6.80;;;;;;;17.63;97.37;99552.44;5110291;28;20228;-86
2022/06/16 03:55:23;;;;;;;7.57;5.97;;;;;;;17.69;97.21;99554.44;5110444;28;20218;-86
2022/06/16 03:57:50;;;;;;;7.73;6.30;;;;;;;17.72;97.29;99548.97;5110228;28;20238;-86
2022/06/16 04:00:19;;;;;;;10.20;6.70;;;;;;;17.80;96.92;99556.03;5110420;28;20215;-85
2022/06/16 04:02:45;;;;;;;8.80;6.87;;;;;;;17.87;96.35;99562.25;5110030;28;20736;-86
2022/06/16 04:05:11;;;;;;;10.50;7.17;;;;;;;17.94;97.25;99562.47;5110286;28;20213;-85
2022/06/16 04:07:38;;;;;;;8.93;6.60;;;;;;;17.99;97.21;99568.03;5109597;28;20620;-86
2022/06/16 04:10:06;;;;;;;10.33;6.87;;;;;;;18.06;96.90;99571.66;5110470;28;20618;-85
2022/06/16 04:12:33;;;;;;;10.47;7.13;;;;;;;18.20;97.05;99568.56;5108925;28;20237;-87
2022/06/16 04:14:59;;;;;;;9.53;7.57;;;;;;;18.32;97.27;99564.81;5110277;28;20689;-86
2022/06/16 04:17:26;;;;;;;11.57;6.97;;;;;;;18.45;97.13;99566.19;5110091;28;20761;-87
2022/06/16 04:22:36;;;;;;;9.37;7.10;;;;;;;18.61;96.61;99568.88;5110135;28;20232;-86
2022/06/16 04:25:04;;;;;;;12.00;7.17;;;;;;;18.77;97.22;99571.63;5109777;28;20311;-86
2022/06/16 04:27:30;;;;;;;8.87;6.77;;;;;;;18.86;96.98;99564.72;5109800;28;20680;-85
2022/06/16 04:29:57;;;;;;;8.77;6.90;;;;;;;19.01;96.80;99572.75;5109833;28;20223;-87
2022/06/16 04:32:23;;;;;;;9.30;7.03;;;;;;;19.10;95.59;99569.25;5109539;28;20246;-86
2022/06/16 04:34:49;;;;;;;9.97;6.60;;;;;;;19.27;94.24;99566.75;5109514;28;20213;-86
2022/06/16 04:37:15;;;;;;;8.23;6.47;;;;;;;19.43;94.91;99571.97;5109368;28;20225;-86
2022/06/16 04:39:42;;;;;;;7.23;6.40;;;;;;;19.58;93.72;99570.44;5109525;28;20213;-86
2022/06/16 04:42:08;;;;;;;8.87;7.20;;;;;;;19.77;93.88;99578.94;5109651;28;20596;-86
2022/06/16 04:44:34;;;;;;;9.60;7.20;;;;;;;19.89;93.86;99567.31;5109615;28;20208;-86
2022/06/16 04:47:02;;;;;;;11.10;7.53;;;;;;;20.08;93.39;99577.41;5109696;28;20238;-86
2022/06/16 04:49:28;;;;;;;11.37;7.10;;;;;;;20.28;93.67;99582.31;5109842;28;20272;-85
2022/06/16 04:51:55;;;;;;;10.57;7.03;;;;;;;20.45;90.39;99570.94;5109486;28;20234;-85
2022/06/16 04:54:21;;;;;;;10.30;6.33;;;;;;;20.64;90.97;99576.81;5109354;28;20230;-86
2022/06/16 04:56:47;;;;;;;8.07;6.40;;;;;;;20.84;89.08;99577.28;5109352;28;20236;-85
2022/06/16 04:59:13;;;;;;;11.27;6.53;;;;;;;21.05;90.00;99574.13;5109446;28;20277;-85
2022/06/16 05:01:40;;;;;;;7.73;6.70;;;;;;;21.29;89.69;99579.25;5109390;28;20245;-86
2022/06/16 05:04:07;;;;;;;8.33;6.07;;;;;;;21.52;88.84;99581.16;5109187;28;20230;-86
2022/06/16 05:06:33;;;;;;;9.00;5.80;;;;;;;21.60;87.30;99584.53;5109529;28;20223;-87
2022/06/16 05:08:59;;;;;;;9.03;6.07;;;;;;;21.66;85.00;99578.66;5109040;28;20236;-85
2022/06/16 05:11:26;;;;;;;8.97;5.77;;;;;;;21.74;85.13;99580.41;5109456;28;20217;-86
2022/06/16 05:13:52;;;;;;;10.90;6.47;;;;;;;21.75;82.93;99576.81;5109038;28;20281;-86
2022/06/16 05:16:18;;;;;;;12.13;7.40;;;;;;;21.99;84.82;99582.88;5108977;28;20705;-85
2022/06/16 05:18:44;;;;;;;10.53;6.87;;;;;;;22.20;83.73;99580.50;5109118;28;20210;-86
2022/06/16 05:21:13;;;;;;;8.80;6.30;;;;;;;22.37;81.34;99586.41;5109144;28;20675;-85
2022/06/16 05:23:39;;;;;;;7.95;5.95;;;;;;;22.58;81.88;99577.91;5110372;28;20233;-85
2022/06/16 05:26:07;;;;;;;10.05;6.25;;;;;;;22.79;80.84;99575.44;5112679;28;20222;-85
2022/06/16 05:28:35;;;;;;;9.55;5.50;;;;;;;22.96;80.03;99583.13;5112585;28;20233;-85
2022/06/16 05:31:01;;;;;;;6.95;5.50;;;;;;;23.13;81.63;99576.75;5112665;28;20209;-85
2022/06/16 05:33:28;;;;;;;11.55;6.30;;;;;;;23.39;82.62;99575.47;5112473;28;20229;-86
2022/06/16 05:35:58;;;;;;;7.68;5.53;;;;;;;23.52;78.56;99595.69;5112587;28;20217;-85
2022/06/16 05:38:25;;;;;;;9.23;5.15;;;;;;;23.28;79.80;99585.38;5112168;28;20252;-86
2022/06/16 05:40:58;;;;;;;8.15;6.07;;;;;;;23.21;79.13;99589.72;5112421;28;20224;-85
2022/06/16 05:43:24;;;;;;;8.38;5.43;;;;;;;23.42;76.86;99590.78;5112121;28;20241;-84
2022/06/16 05:45:52;;;;;;;7.32;5.63;;;;;;;23.60;76.80;99591.19;5112532;28;20240;-85
2022/06/16 05:48:18;;;;;;;12.52;6.10;;;;;;;23.86;77.79;99597.75;5112048;28;20738;-86
2022/06/16 05:50:45;;;;;;;6.70;5.47;;;;;;;24.03;77.44;99593.91;5112336;28;20205;-84
2022/06/16 05:53:11;;;;;;;6.45;4.90;;;;;;;24.26;74.96;99598.13;5111974;28;20225;-83
2022/06/16 05:55:38;;;;;;;7.30;4.70;;;;;;;24.43;72.87;99594.28;5112193;28;20216;-83
2022/06/16 05:58:04;;;;;;;7.10;4.30;;;;;;;24.58;70.95;99597.66;5112099;28;20237;-87
2022/06/16 06:00:31;;;;;;;7.45;4.25;;;;;;;24.53;67.86;99594.78;5112181;28;20217;-85
2022/06/16 06:02:59;;;;;;;5.65;3.85;;;;;;;24.79;66.96;99593.38;5111892;28;20230;-85
2022/06/16 06:05:26;;;;;;;6.50;3.92;;;;;;;25.02;68.21;99593.94;5111916;28;20220;-84
2022/06/16 06:16:26;;;;;;;7.60;4.05;;;;;;;24.79;64.66;99603.84;5112136;28;20294;-86
2022/06/16 06:18:52;;;;;;;5.45;3.90;;;;;;;24.73;64.12;99602.00;5111798;28;20242;-86
2022/06/16 06:21:58;;;;;;;4.53;3.95;;;;;;;24.65;63.82;99602.94;5111537;28;20285;-86
2022/06/16 06:24:06;;;;;;;4.68;3.42;;;;;;;24.81;63.18;99607.88;5111607;28;20687;-87
2022/06/16 06:26:34;;;;;;;4.88;3.90;;;;;;;24.81;63.85;99615.72;5111756;28;20672;-86
2022/06/16 06:29:00;;;;;;;8.05;3.85;;;;;;;24.81;64.68;99612.28;5111672;28;20229;-87
2022/06/16 06:31:26;;;;;;;5.97;3.92;;;;;;;24.95;68.71;99614.00;5111597;28;20216;-88
2022/06/16 06:33:53;;;;;;;4.88;3.65;;;;;;;25.03;63.66;99615.66;5111738;28;20212;-87
2022/06/16 06:36:19;;;;;;;7.30;4.00;;;;;;;24.85;64.92;99624.00;5110832;28;20216;-88
2022/06/16 06:38:45;;;;;;;4.43;3.78;;;;;;;24.97;67.71;99619.06;5111429;28;20224;-87
2022/06/16 06:41:11;;;;;;;4.95;4.45;;;;;;;25.16;69.87;99620.19;5111661;28;20213;-86
2022/06/16 06:43:38;;;;;;;4.88;4.22;;;;;;;25.29;68.58;99612.44;5111303;28;20225;-87
2022/06/16 06:46:04;;;;;;;6.18;4.63;;;;;;;25.50;68.74;99606.28;5111434;28;20642;-87
2022/06/16 06:48:31;;;;;;;7.90;4.28;;;;;;;25.78;68.48;99608.00;5111222;28;20229;-88
2022/06/16 06:50:57;;;;;;;5.93;4.20;;;;;;;26.09;65.81;99610.09;5111331;28;20206;-88
2022/06/16 06:53:23;;;;;;;5.35;4.40;;;;;;;26.40;65.06;99614.78;5111178;28;20738;-85
2022/06/16 06:55:49;;;;;;;6.28;5.20;;;;;;;26.64;66.53;99618.66;5111382;28;20221;-86
2022/06/16 06:58:19;;;;;;;6.28;5.50;;;;;;;26.90;67.41;99611.78;5111024;28;20237;-87
2022/06/16 07:00:46;;;;;;;8.15;5.95;;;;;;;27.01;67.18;99613.78;5111683;28;20234;-88
2022/06/16 07:03:12;;;;;;;8.70;5.72;;;;;;;27.03;66.44;99617.00;5110958;28;20232;-87
2022/06/16 07:05:39;;;;;;;6.18;4.82;;;;;;;26.72;63.41;99615.84;5111066;28;20613;-87
2022/06/16 07:08:06;;;;;;;5.82;4.60;;;;;;;26.99;63.93;99621.03;5111114;28;20699;-87
2022/06/16 07:10:32;;;;;;;7.47;4.63;;;;;;;27.11;63.64;99624.66;5111231;28;20212;-89
2022/06/16 07:12:58;;;;;;;5.53;4.55;;;;;;;26.96;62.57;99621.44;5110568;28;20236;-87
2022/06/16 07:15:25;;;;;;;6.32;4.90;;;;;;;26.88;62.77;99622.50;5111025;28;20852;-86
2022/06/16 07:17:52;;;;;;;6.03;4.47;;;;;;;27.26;62.95;99619.22;5110670;28;20217;-87
2022/06/16 07:20:18;;;;;;;5.30;4.70;;;;;;;27.57;61.92;99613.22;5110873;28;20225;-87
2022/06/16 07:22:44;;;;;;;6.00;4.50;;;;;;;27.86;62.22;99616.34;5111013;28;20605;-87
2022/06/16 07:25:11;;;;;;;6.05;4.47;;;;;;;28.14;60.64;99616.81;5110665;28;20300;-86
2022/06/16 07:27:37;;;;;;;6.70;4.28;;;;;;;28.34;57.48;99613.22;5110638;28;20247;-87
2022/06/16 07:30:07;;;;;;;10.27;4.45;;;;;;;28.33;55.12;99622.13;5110689;28;20243;-86
2022/06/16 07:32:33;;;;;;;6.63;4.20;;;;;;;28.06;55.59;99621.50;5110713;28;20411;-87
2022/06/16 07:35:00;;;;;;;6.78;4.68;;;;;;;28.20;54.31;99621.22;5110774;28;20240;-86
2022/06/16 07:37:26;;;;;;;6.22;3.50;;;;;;;28.32;54.16;99615.25;5110623;28;20323;-86
2022/06/16 07:39:52;;;;;;;5.25;4.00;;;;;;;28.26;53.49;99616.13;5111189;28;20209;-85
2022/06/16 07:42:19;;;;;;;5.30;4.00;;;;;;;28.31;54.96;99618.94;5110513;28;20249;-87
2022/06/16 07:44:45;;;;;;;4.72;3.72;;;;;;;28.55;53.24;99620.78;5110595;28;20282;-87
2022/06/16 07:47:11;;;;;;;4.10;3.33;;;;;;;28.63;49.16;99628.41;5108994;28;20355;-86
2022/06/16 07:49:37;;;;;;;4.18;3.78;;;;;;;28.77;51.43;99617.75;5110207;28;20770;-87
2022/06/16 07:52:04;;;;;;;6.78;3.50;;;;;;;28.92;51.99;99615.59;5110505;28;20241;-86
2022/06/16 07:54:31;;;;;;;4.15;3.63;;;;;;;28.70;50.19;99623.06;5110294;28;20262;-86
2022/06/16 07:56:57;;;;;;;3.83;3.53;;;;;;;28.67;50.19;99611.16;5110325;28;20248;-86
2022/06/16 07:59:23;;;;;;;6.10;3.78;;;;;;;28.67;48.29;99615.63;5110234;28;20221;-87
2022/06/16 08:01:50;;;;;;;8.90;3.53;;;;;;;28.92;49.64;99620.88;5110319;28;20585;-87
2022/06/16 08:04:16;;;;;;;5.95;3.58;;;;;;;29.16;47.73;99621.06;5110081;28;20216;-86
2022/06/16 08:06:43;;;;;;;3.90;3.50;;;;;;;29.33;47.86;99622.09;5110183;28;20434;-86
2022/06/16 08:09:11;;;;;;;5.10;3.80;;;;;;;29.40;48.82;99622.78;5109741;28;20244;-87
2022/06/16 08:14:22;;;;;;;6.20;3.78;;;;;;;29.78;49.12;99613.84;5110167;28;21077;-88
2022/06/16 08:16:49;;;;;;;7.28;4.10;;;;;;;29.55;46.41;99612.69;5109839;28;20236;-88
2022/06/16 08:19:15;;;;;;;6.80;4.18;;;;;;;29.20;47.65;99622.22;5109760;28;20209;-86
2022/06/16 08:21:41;;;;;;;9.05;4.05;;;;;;;29.18;50.56;99621.66;5109942;28;20312;-86
2022/06/16 08:24:08;;;;;;;4.55;3.78;;;;;;;29.50;49.40;99612.56;5110032;28;20270;-87
2022/06/16 08:26:36;;;;;;;8.93;3.90;;;;;;;29.80;50.22;99606.53;5109654;28;20217;-87
2022/06/16 08:29:05;;;;;;;5.72;3.65;;;;;;;29.66;45.58;99619.06;5109722;28;20317;-87
2022/06/16 08:31:31;;;;;;;4.60;3.50;;;;;;;29.30;48.12;99611.97;5109856;28;20236;-86
2022/06/16 08:33:57;;;;;;;3.83;3.47;;;;;;;29.47;46.74;99613.00;5109753;28;20228;-85
2022/06/16 08:36:24;;;;;;;6.43;3.38;;;;;;;29.44;41.69;99613.44;5109530;28;20224;-87
2022/06/16 08:38:50;;;;;;;5.18;3.90;;;;;;;29.95;45.70;99608.75;5109537;28;20197;-86
2022/06/16 08:41:22;;;;;;;5.53;3.97;;;;;;;30.27;45.73;99617.22;5109826;28;20295;-86
2022/06/16 08:43:56;;;;;;;5.88;4.10;;;;;;;29.76;48.26;99610.63;5109433;28;20201;-86
2022/06/16 08:46:27;;;;;;;4.63;4.10;;;;;;;29.75;47.76;99609.00;5109562;28;20706;-88
2022/06/16 08:49:01;;;;;;;6.78;4.07;;;;;;;30.17;49.89;99616.94;5109418;28;20224;-86
2022/06/16 08:51:44;;;;;;;6.72;3.83;;;;;;;29.90;44.94;99619.94;5109790;28;20219;-86
2022/06/16 08:54:27;;;;;;;4.88;3.85;;;;;;;29.48;48.10;99619.88;5109183;28;20213;-86
2022/06/16 08:56:59;;;;;;;5.45;3.97;;;;;;;29.65;49.56;99608.75;5109312;28;20229;-87
2022/06/16 08:59:32;;;;;;;4.53;4.13;;;;;;;29.99;47.87;99610.72;5109202;28;20607;-86
2022/06/16 09:02:06;;;;;;;7.55;3.47;;;;;;;30.16;45.72;99616.13;5109327;28;20695;-87
2022/06/16 09:04:34;;;;;;;9.95;5.20;;;;;;;30.41;48.83;99618.63;5109432;28;20205;-86
2022/06/16 09:07:10;;;;;;;5.53;4.22;;;;;;;30.57;43.95;99606.56;5109215;28;20229;-86
2022/06/16 09:12:44;;;;;;;4.70;3.92;;;;;;;30.29;42.81;99604.63;5109434;28;20664;-87
2022/06/16 09:15:22;;;;;;;5.30;3.20;;;;;;;30.15;42.27;99603.97;5109478;28;20283;-86
2022/06/16 09:18:02;;;;;;;6.72;3.20;;;;;;;30.14;41.30;99607.66;5109375;28;20651;-87
2022/06/16 09:20:35;;;;;;;4.45;3.38;;;;;;;30.39;42.87;99607.47;5088851;28;20221;-86
2022/06/16 09:23:18;;;;;;;8.13;3.50;;;;;;;30.76;43.10;99601.19;5088789;28;20230;-86
2022/06/16 09:25:59;;;;;;;4.40;3.10;;;;;;;30.84;42.15;99604.31;5088567;28;20223;-85
2022/06/16 09:28:31;;;;;;;4.63;3.17;;;;;;;30.59;42.67;99606.34;5088255;28;20634;-85
2022/06/16 09:31:04;;;;;;;6.63;3.28;;;;;;;31.04;43.94;99600.50;5088609;28;20672;-87
2022/06/16 09:33:35;;;;;;;4.28;3.47;;;;;;;31.29;42.58;99603.66;5088486;28;20298;-85
2022/06/16 09:36:09;;;;;;;4.32;3.50;;;;;;;31.25;41.24;99602.53;5089021;28;20221;-85
2022/06/16 09:38:39;;;;;;;7.45;3.70;;;;;;;31.32;40.74;99600.53;5088398;28;20312;-86
2022/06/16 09:42:32;;;;;;;3.65;3.13;;;;;;;31.52;42.18;99602.03;5088510;28;20218;-86
2022/06/16 09:43:58;;;;;;;5.18;3.03;;;;;;;31.11;40.83;99595.91;5088103;28;20221;-86
2022/06/16 09:46:32;;;;;;;6.38;2.92;;;;;;;31.31;40.82;99596.31;5088558;28;20217;-85
2022/06/16 09:49:04;;;;;;;4.00;3.00;;;;;;;31.55;38.29;99589.13;5088295;28;20222;-86
2022/06/16 09:51:35;;;;;;;4.22;2.90;;;;;;;31.66;39.32;99592.78;5088377;28;20210;-85
2022/06/16 09:54:06;;;;;;;4.13;3.10;;;;;;;31.51;41.26;99592.50;5088511;28;20609;-85
2022/06/16 09:56:38;;;;;;;5.70;3.20;;;;;;;31.65;38.41;99585.88;5088603;28;20268;-85
2022/06/16 09:59:09;;;;;;;3.85;3.08;;;;;;;31.84;38.45;99585.69;5088298;28;20216;-85
2022/06/16 10:01:43;;;;;;;3.72;3.25;;;;;;;31.76;38.00;99577.06;5088462;28;20218;-87
2022/06/16 10:04:09;;;;;;;3.75;2.83;;;;;;;31.76;38.63;99582.38;5088249;28;20665;-85
2022/06/16 10:06:40;;;;;;;4.57;2.88;;;;;;;31.63;36.32;99579.22;5088274;28;20210;-85
2022/06/16 10:09:16;;;;;;;5.25;2.95;;;;;;;31.81;36.87;99584.31;5087749;28;20759;-86
2022/06/16 10:11:58;;;;;;;3.50;2.90;;;;;;;31.77;38.21;99581.34;5091282;28;20237;-86
2022/06/16 10:14:30;;;;;;;3.47;2.72;;;;;;;32.08;39.33;99579.22;5091895;28;20657;-85
2022/06/16 10:17:01;;;;;;;4.10;3.08;;;;;;;32.19;36.15;99581.00;5091416;28;20265;-86
2022/06/16 10:19:32;;;;;;;4.53;3.08;;;;;;;31.88;35.74;99574.38;5091574;28;20210;-88
2022/06/16 10:22:00;;;;;;;4.88;2.90;;;;;;;32.13;35.68;99571.38;5091661;28;20320;-87
2022/06/16 10:24:31;;;;;;;3.47;3.05;;;;;;;31.69;37.85;99560.56;5091322;28;20240;-85
2022/06/16 10:26:59;;;;;;;3.85;3.20;;;;;;;31.50;37.61;99573.16;5091666;28;20647;-84
2022/06/16 10:29:27;;;;;;;5.60;3.10;;;;;;;31.38;37.47;99568.97;5091108;28;20241;-87
2022/06/16 10:31:57;;;;;;;5.50;3.17;;;;;;;31.01;37.68;99574.56;5091265;28;20238;-87
2022/06/16 10:34:30;;;;;;;4.40;3.05;;;;;;;31.18;36.47;99556.94;5091170;28;20259;-86
2022/06/16 10:37:01;;;;;;;5.05;3.17;;;;;;;31.50;37.27;99559.16;5091215;28;20241;-87
2022/06/16 10:39:34;;;;;;;6.13;3.13;;;;;;;31.46;40.46;99561.47;5091114;28;20209;-86
2022/06/16 10:42:04;;;;;;;6.35;3.38;;;;;;;30.84;37.64;99554.16;5091055;28;20234;-87
2022/06/16 10:44:32;;;;;;;3.78;3.10;;;;;;;30.81;39.04;99557.25;5091110;28;20225;-86
2022/06/16 10:47:02;;;;;;;5.32;2.80;;;;;;;30.80;38.96;99553.00;5091185;28;20230;-87
2022/06/16 10:49:32;;;;;;;3.95;3.10;;;;;;;31.11;40.49;99551.00;5090678;28;20226;-86
2022/06/16 10:52:02;;;;;;;5.03;3.20;;;;;;;31.38;40.71;99559.19;5090872;28;20279;-85
2022/06/16 10:54:32;;;;;;;5.93;3.03;;;;;;;31.31;37.43;99553.25;5090783;28;20209;-87
2022/06/16 10:57:15;;;;;;;4.90;3.30;;;;;;;31.69;40.19;99555.28;5090960;28;20516;-86
2022/06/16 10:59:45;;;;;;;5.35;3.30;;;;;;;31.55;37.13;99538.91;5090879;28;20222;-88
2022/06/16 11:02:23;;;;;;;3.75;3.35;;;;;;;30.86;37.52;99549.47;5090889;28;20233;-83
2022/06/16 11:04:58;;;;;;;4.95;3.17;;;;;;;30.78;36.91;99544.50;5090700;28;20270;-85
2022/06/16 11:07:29;;;;;;;4.18;2.90;;;;;;;30.64;39.95;99543.94;5090857;28;20225;-86
2022/06/16 11:10:04;;;;;;;5.18;3.20;;;;;;;30.89;40.48;99537.59;5090753;28;20528;-86
2022/06/16 11:12:31;;;;;;;5.00;3.08;;;;;;;30.87;36.70;99535.22;5090924;28;20273;-86
2022/06/16 11:15:03;;;;;;;3.67;3.38;;;;;;;31.27;37.65;99544.97;5090681;28;20222;-86
2022/06/16 11:17:31;;;;;;;3.30;3.00;;;;;;;31.15;37.78;99541.56;5090596;28;20260;-84
2022/06/16 11:20:02;;;;;;;6.00;3.30;;;;;;;31.13;36.25;99547.09;5090421;28;20731;-86
2022/06/16 11:22:32;;;;;;;3.67;3.30;;;;;;;30.78;36.03;99544.50;5090122;28;20242;-87
2022/06/16 11:25:03;;;;;;;3.70;3.40;;;;;;;30.74;36.68;99538.06;5090561;28;20218;-87
2022/06/16 11:27:39;;;;;;;3.60;3.20;;;;;;;30.88;37.21;99534.16;5090188;28;20233;-87
2022/06/16 11:30:28;;;;;;;4.88;3.40;;;;;;;31.28;39.19;99527.28;5090484;28;20229;-87
2022/06/16 11:32:55;;;;;;;5.03;3.20;;;;;;;31.52;37.98;99528.81;5090716;28;20248;-87
2022/06/16 11:35:32;;;;;;;3.65;2.90;;;;;;;31.51;36.73;99531.72;5090300;28;20718;-87
2022/06/16 11:38:05;;;;;;;4.22;3.10;;;;;;;31.04;38.31;99531.81;5090168;28;20241;-87
2022/06/16 11:40:40;;;;;;;4.57;3.10;;;;;;;31.04;37.54;99527.38;5090507;28;20214;-87
2022/06/16 11:43:37;;;;;;;3.80;3.33;;;;;;;30.98;38.30;99530.13;5090163;28;20734;-86
2022/06/16 11:46:11;;;;;;;5.20;3.20;;;;;;;30.93;37.67;99524.75;5090386;28;20222;-86
2022/06/16 11:48:45;;;;;;;5.35;3.20;;;;;;;30.57;39.06;99516.03;5089823;28;20233;-87
2022/06/16 11:51:25;;;;;;;5.13;3.22;;;;;;;30.84;39.00;99505.84;5090210;28;20266;-86
2022/06/16 11:54:03;;;;;;;3.80;3.13;;;;;;;30.77;39.32;99508.56;5089970;28;20250;-87
2022/06/16 11:56:39;;;;;;;5.78;3.70;;;;;;;30.78;37.47;99518.09;5090229;28;20214;-87
2022/06/16 11:59:43;;;;;;;5.63;3.53;;;;;;;31.01;38.61;99524.38;5089858;28;20228;-86
2022/06/16 12:02:36;;;;;;;5.80;3.35;;;;;;;30.95;38.13;99512.94;5090155;28;20233;-85
2022/06/16 12:05:11;;;;;;;3.30;3.00;;;;;;;30.89;41.68;99506.75;5090043;28;20264;-86